createdAt,value
2019-05-09T00:00:43.904Z,20.47
2019-05-09T00:03:13.853Z,20.00
2019-05-09T00:05:44.069Z,13.03
2019-05-09T00:08:13.889Z,16.33
2019-05-09T00:10:44.903Z,15.47
2019-05-09T00:13:13.821Z,17.00
2019-05-09T00:15:43.825Z,14.17
2019-05-09T00:18:14.299Z,17.07
2019-05-09T00:20:44.690Z,13.93
2019-05-09T00:23:13.649Z,17.13
2019-05-09T00:25:43.297Z,15.83
2019-05-09T00:28:13.485Z,13.87
2019-05-09T00:30:59.060Z,13.10
2019-05-09T00:33:34.440Z,11.43
2019-05-09T00:36:04.089Z,13.50
2019-05-09T00:38:40.273Z,14.63
2019-05-09T00:41:08.900Z,16.60
2019-05-09T00:43:38.023Z,12.77
2019-05-09T00:46:08.309Z,16.33
2019-05-09T00:48:53.766Z,17.27
2019-05-09T00:51:23.308Z,13.20
2019-05-09T00:53:53.614Z,14.27
2019-05-09T00:56:23.914Z,17.50
2019-05-09T00:58:53.492Z,17.07
2019-05-09T01:01:24.027Z,12.77
2019-05-09T01:03:53.592Z,13.20
2019-05-09T01:06:24.015Z,13.47
2019-05-09T01:08:53.625Z,15.93
2019-05-09T01:11:24.276Z,21.07
2019-05-09T01:13:54.334Z,18.93
2019-05-09T01:16:24.442Z,18.60
2019-05-09T01:18:54.341Z,21.93
2019-05-09T01:21:24.005Z,25.13
2019-05-09T01:23:53.993Z,20.53
2019-05-09T01:26:24.027Z,22.60
2019-05-09T01:28:53.946Z,20.53
2019-05-09T01:31:24.102Z,16.43
2019-05-09T01:33:57.729Z,17.93
2019-05-09T01:36:27.916Z,19.17
2019-05-09T01:38:56.546Z,18.37
2019-05-09T01:41:30.729Z,18.67
2019-05-09T01:43:55.604Z,13.70
2019-05-09T01:46:24.223Z,12.83
2019-05-09T01:48:53.858Z,15.10
2019-05-09T01:51:23.483Z,13.60
2019-05-09T01:53:53.765Z,14.77
2019-05-09T01:56:23.520Z,16.53
2019-05-09T01:58:53.822Z,13.87
2019-05-09T02:01:24.085Z,13.80
2019-05-09T02:03:53.702Z,16.97
2019-05-09T02:06:24.464Z,16.90
2019-05-09T02:08:54.510Z,17.30
2019-05-09T02:11:23.991Z,16.50
2019-05-09T02:13:53.976Z,15.33
2019-05-09T02:16:26.595Z,15.50
2019-05-09T02:18:56.871Z,17.30
2019-05-09T02:21:25.508Z,18.07
2019-05-09T02:23:54.145Z,16.50
2019-05-09T02:26:24.006Z,18.00
2019-05-09T02:28:53.812Z,15.50
2019-05-09T02:31:24.445Z,16.03
2019-05-09T02:33:54.214Z,21.87
2019-05-09T02:36:23.061Z,14.93
2019-05-09T02:38:51.692Z,19.77
2019-05-09T02:41:20.361Z,20.47
2019-05-09T02:43:49.851Z,19.37
2019-05-09T02:46:29.104Z,14.10
2019-05-09T02:48:59.125Z,20.13
2019-05-09T02:51:29.216Z,18.53
2019-05-09T02:53:58.538Z,17.47
2019-05-09T02:56:29.476Z,18.00
2019-05-09T02:59:00.120Z,16.93
2019-05-09T03:01:49.367Z,19.00
2019-05-09T03:04:18.911Z,14.60
2019-05-09T03:06:49.293Z,19.97
2019-05-09T03:09:18.979Z,18.50
2019-05-09T03:11:48.735Z,18.23
2019-05-09T03:14:19.419Z,16.40
2019-05-09T03:16:49.186Z,18.77
2019-05-09T03:19:19.498Z,18.63
2019-05-09T03:21:53.022Z,14.60
2019-05-09T03:24:21.600Z,15.77
2019-05-09T03:26:54.700Z,16.63
2019-05-09T03:29:29.163Z,16.07
2019-05-09T03:32:00.108Z,38.00
2019-05-09T03:34:30.127Z,21.73
2019-05-09T03:36:59.080Z,19.00
2019-05-09T03:39:27.772Z,19.63
2019-05-09T03:41:57.442Z,20.87
2019-05-09T03:44:28.282Z,25.43
2019-05-09T03:46:58.273Z,22.20
2019-05-09T03:49:28.388Z,24.43
2019-05-09T03:51:58.474Z,19.50
2019-05-09T03:54:28.281Z,17.90
2019-05-09T03:56:58.684Z,19.33
2019-05-09T03:59:27.931Z,15.20
2019-05-09T04:01:59.056Z,18.80
2019-05-09T04:04:28.145Z,20.53
2019-05-09T04:06:58.069Z,19.37
2019-05-09T04:09:27.439Z,20.90
2019-05-09T04:11:58.346Z,25.67
2019-05-09T04:14:28.313Z,21.83
2019-05-09T04:16:57.608Z,20.07
2019-05-09T04:19:27.552Z,25.43
2019-05-09T04:21:57.630Z,21.47
2019-05-09T04:24:28.134Z,24.77
2019-05-09T04:27:04.523Z,28.13
2019-05-09T04:29:33.108Z,24.67
2019-05-09T04:32:01.746Z,24.23
2019-05-09T04:34:30.441Z,29.40
2019-05-09T04:36:58.989Z,23.83
2019-05-09T04:39:28.494Z,31.77
2019-05-09T04:42:03.463Z,21.40
2019-05-09T04:44:38.971Z,28.17
2019-05-09T04:47:08.778Z,24.80
2019-05-09T04:49:41.081Z,27.10
2019-05-09T04:52:07.997Z,28.13
2019-05-09T04:54:38.420Z,29.30
2019-05-09T04:57:07.765Z,26.97
2019-05-09T04:59:37.351Z,32.63
2019-05-09T05:02:23.336Z,26.67
2019-05-09T05:04:52.034Z,26.13
2019-05-09T05:07:20.677Z,26.80
2019-05-09T05:09:49.389Z,22.07
2019-05-09T05:12:18.723Z,23.73
2019-05-09T05:14:47.752Z,26.33
2019-05-09T05:17:18.016Z,24.47
2019-05-09T05:19:47.786Z,25.47
2019-05-09T05:22:28.371Z,20.80
2019-05-09T05:24:59.679Z,21.33
2019-05-09T05:27:28.630Z,22.40
2019-05-09T05:29:58.302Z,19.53
2019-05-09T05:32:28.850Z,23.63
2019-05-09T05:35:02.139Z,25.37
2019-05-09T05:37:30.793Z,23.23
2019-05-09T05:39:59.457Z,26.27
2019-05-09T05:42:28.434Z,25.97
2019-05-09T05:44:58.284Z,29.93
2019-05-09T05:47:29.350Z,23.43
2019-05-09T05:49:58.181Z,25.37
2019-05-09T05:52:27.750Z,32.57
2019-05-09T05:54:58.177Z,26.60
2019-05-09T05:57:28.012Z,28.10
2019-05-09T05:59:58.536Z,24.70
2019-05-09T06:02:28.107Z,37.87
2019-05-09T06:04:57.944Z,30.37
2019-05-09T06:07:28.511Z,43.70
2019-05-09T06:09:57.691Z,41.37
2019-05-09T06:12:27.584Z,39.20
2019-05-09T06:14:58.204Z,43.57
2019-05-09T06:17:28.613Z,32.53
2019-05-09T06:19:58.927Z,43.27
2019-05-09T06:22:27.752Z,38.03
2019-05-09T06:24:58.226Z,36.50
2019-05-09T06:27:27.495Z,37.37
2019-05-09T06:29:58.153Z,31.27
2019-05-09T06:32:27.980Z,30.80
2019-05-09T06:34:57.871Z,35.13
2019-05-09T06:37:27.721Z,35.83
2019-05-09T06:39:58.236Z,37.30
2019-05-09T06:42:28.662Z,33.70
2019-05-09T06:45:01.869Z,28.03
2019-05-09T06:47:32.165Z,23.00
2019-05-09T06:50:02.514Z,28.27
2019-05-09T06:52:31.862Z,29.10
2019-05-09T06:55:00.520Z,24.90
2019-05-09T06:57:29.172Z,31.43
2019-05-09T06:59:58.154Z,34.03
2019-05-09T07:02:38.801Z,22.70
2019-05-09T07:05:18.410Z,24.87
2019-05-09T07:07:57.818Z,24.00
2019-05-09T07:10:28.393Z,28.13
2019-05-09T07:12:58.508Z,24.53
2019-05-09T07:15:28.340Z,26.80
2019-05-09T07:17:57.606Z,32.10
2019-05-09T07:20:28.342Z,27.37
2019-05-09T07:22:58.360Z,27.57
2019-05-09T07:25:37.883Z,27.53
2019-05-09T07:28:07.622Z,25.53
2019-05-09T07:30:44.024Z,26.93
2019-05-09T07:33:18.890Z,27.57
2019-05-09T07:35:47.739Z,28.07
2019-05-09T07:38:18.041Z,22.00
2019-05-09T07:40:47.800Z,32.53
2019-05-09T07:43:17.975Z,22.83
2019-05-09T07:46:08.885Z,23.27
2019-05-09T07:48:38.772Z,33.90
2019-05-09T07:51:08.049Z,28.50
2019-05-09T07:53:38.034Z,25.43
2019-05-09T07:56:08.010Z,21.93
2019-05-09T07:58:37.741Z,27.60
2019-05-09T08:01:08.479Z,22.30
2019-05-09T08:03:38.480Z,28.17
2019-05-09T08:06:08.636Z,23.53
2019-05-09T08:08:38.587Z,23.90
2019-05-09T08:11:08.818Z,24.97
2019-05-09T08:13:39.244Z,20.10
2019-05-09T08:16:14.123Z,22.33
2019-05-09T08:18:38.594Z,17.87
2019-05-09T08:21:08.516Z,20.47
2019-05-09T08:23:38.020Z,23.73
2019-05-09T08:26:08.770Z,15.87
2019-05-09T08:28:38.984Z,20.07
2019-05-09T08:31:08.435Z,22.33
2019-05-09T08:33:38.050Z,15.70
2019-05-09T08:36:08.608Z,15.53
2019-05-09T08:38:38.928Z,18.17
2019-05-09T08:41:12.855Z,17.60
2019-05-09T08:43:41.879Z,14.93
2019-05-09T08:46:11.433Z,19.60
2019-05-09T08:48:40.301Z,19.83
2019-05-09T08:51:18.024Z,13.77
2019-05-09T08:53:48.220Z,22.27
2019-05-09T08:56:17.774Z,19.53
2019-05-09T08:58:48.485Z,20.67
2019-05-09T09:01:27.325Z,20.43
2019-05-09T09:03:48.465Z,18.70
2019-05-09T09:06:18.351Z,15.03
2019-05-09T09:08:48.287Z,18.63
2019-05-09T09:11:18.737Z,15.10
2019-05-09T09:13:48.335Z,13.63
2019-05-09T09:16:22.095Z,13.20
2019-05-09T09:18:48.179Z,15.50
2019-05-09T09:21:18.364Z,15.43
2019-05-09T09:23:50.600Z,13.43
2019-05-09T09:26:18.365Z,13.67
2019-05-09T09:28:48.428Z,14.07
2019-05-09T09:31:18.018Z,36.47
2019-05-09T09:33:47.981Z,17.43
2019-05-09T09:36:17.852Z,18.70
2019-05-09T09:38:48.089Z,13.23
2019-05-09T09:41:18.179Z,13.53
2019-05-09T09:43:47.772Z,19.20
2019-05-09T09:46:18.237Z,15.67
2019-05-09T09:48:47.989Z,15.50
2019-05-09T09:51:18.670Z,23.27
2019-05-09T09:53:48.914Z,11.30
2019-05-09T09:56:21.731Z,13.27
2019-05-09T09:58:49.825Z,19.17
2019-05-09T10:01:20.111Z,17.13
2019-05-09T10:03:50.407Z,17.67
2019-05-09T10:06:19.109Z,16.73
2019-05-09T10:08:49.016Z,19.33
2019-05-09T10:11:18.076Z,18.00
2019-05-09T10:13:48.049Z,14.70
2019-05-09T10:16:33.962Z,15.40
2019-05-09T10:19:04.283Z,16.83
2019-05-09T10:21:34.576Z,19.20
2019-05-09T10:24:03.256Z,15.93
2019-05-09T10:26:31.980Z,26.23
2019-05-09T10:29:00.645Z,20.63
2019-05-09T10:31:29.342Z,17.23
2019-05-09T10:33:58.213Z,17.90
2019-05-09T10:36:27.892Z,19.30
2019-05-09T10:38:58.438Z,27.83
2019-05-09T10:41:27.213Z,21.07
2019-05-09T10:44:08.355Z,28.20
2019-05-09T10:46:57.260Z,17.30
2019-05-09T10:49:21.481Z,22.80
2019-05-09T10:51:50.139Z,23.97
2019-05-09T10:54:18.895Z,17.33
2019-05-09T10:56:48.689Z,16.63
2019-05-09T10:59:18.294Z,13.97
2019-05-09T11:01:49.661Z,15.73
2019-05-09T11:04:18.069Z,16.57
2019-05-09T11:06:46.906Z,13.33
2019-05-09T11:09:18.031Z,17.87
2019-05-09T11:11:48.305Z,20.93
2019-05-09T11:14:32.732Z,30.73
2019-05-09T11:16:51.118Z,20.47
2019-05-09T11:19:18.404Z,20.83
2019-05-09T11:21:47.840Z,19.93
2019-05-09T11:24:18.814Z,16.73
2019-05-09T11:26:48.094Z,17.33
2019-05-09T11:29:18.747Z,15.07
2019-05-09T11:31:47.810Z,16.27
2019-05-09T11:34:18.667Z,21.63
2019-05-09T11:36:49.617Z,22.30
2019-05-09T11:39:35.247Z,14.83
2019-05-09T11:41:48.788Z,16.20
2019-05-09T11:44:18.424Z,21.30
2019-05-09T11:46:47.787Z,14.77
2019-05-09T11:49:17.943Z,21.77
2019-05-09T11:51:48.265Z,19.00
2019-05-09T11:54:19.380Z,16.33
2019-05-09T11:56:48.170Z,16.27
2019-05-09T11:59:18.884Z,15.23
2019-05-09T12:01:48.261Z,17.57
2019-05-09T12:04:18.720Z,16.77
2019-05-09T12:06:49.341Z,36.33
2019-05-09T12:09:18.629Z,21.83
2019-05-09T12:11:48.320Z,25.03
2019-05-09T12:14:17.205Z,20.73
2019-05-09T12:16:48.062Z,57.17
2019-05-09T12:19:17.995Z,31.27
2019-05-09T12:21:48.136Z,19.03
2019-05-09T12:24:18.391Z,20.67
2019-05-09T12:26:48.171Z,23.23
2019-05-09T12:29:19.528Z,13.53
2019-05-09T12:31:48.796Z,9.80
2019-05-09T12:34:19.543Z,6.87
2019-05-09T12:36:49.555Z,6.70
2019-05-09T12:39:19.027Z,10.57
2019-05-09T12:41:48.574Z,19.50
2019-05-09T12:44:18.251Z,13.10
2019-05-09T12:46:48.732Z,12.37
2019-05-09T12:49:18.993Z,14.70
2019-05-09T12:51:47.974Z,14.37
2019-05-09T12:54:18.912Z,18.70
2019-05-09T12:56:48.569Z,15.00
2019-05-09T12:59:18.803Z,16.13
2019-05-09T13:01:49.114Z,19.17
2019-05-09T13:04:18.111Z,14.23
2019-05-09T13:06:48.933Z,21.93
2019-05-09T13:09:17.889Z,15.40
2019-05-09T13:11:48.211Z,16.90
2019-05-09T13:14:19.212Z,19.70
2019-05-09T13:16:53.743Z,23.60
2019-05-09T13:19:24.807Z,22.33
2019-05-09T13:21:53.479Z,25.37
2019-05-09T13:24:22.116Z,29.20
2019-05-09T13:26:51.774Z,19.07
2019-05-09T13:29:20.416Z,21.40
2019-05-09T13:31:48.923Z,17.13
2019-05-09T13:34:18.923Z,19.87
2019-05-09T13:36:48.896Z,17.70
2019-05-09T13:39:18.092Z,16.60
2019-05-09T13:41:47.638Z,24.67
2019-05-09T13:44:18.160Z,19.27
2019-05-09T13:46:48.918Z,20.37
2019-05-09T13:49:19.289Z,23.00
2019-05-09T13:51:57.560Z,28.97
2019-05-09T13:54:18.654Z,22.93
2019-05-09T13:56:54.958Z,18.73
2019-05-09T13:59:18.631Z,22.43
2019-05-09T14:01:48.073Z,14.67
2019-05-09T14:04:16.834Z,15.57
2019-05-09T14:06:45.464Z,9.97
2019-05-09T14:09:14.097Z,14.27
2019-05-09T14:11:42.789Z,9.97
2019-05-09T14:14:12.237Z,15.50
2019-05-09T14:16:40.947Z,13.67
2019-05-09T14:19:30.131Z,16.27
2019-05-09T14:21:40.006Z,11.37
2019-05-09T14:24:14.932Z,18.07
2019-05-09T14:26:39.029Z,19.67
2019-05-09T14:29:12.145Z,25.93
2019-05-09T14:31:38.861Z,24.77
2019-05-09T14:34:08.792Z,19.77
2019-05-09T14:36:39.189Z,18.33
2019-05-09T14:39:09.406Z,16.10
2019-05-09T14:41:39.022Z,13.20
2019-05-09T14:44:09.412Z,14.27
2019-05-09T14:46:39.234Z,17.13
2019-05-09T14:49:08.316Z,13.07
2019-05-09T14:51:38.013Z,16.60
2019-05-09T14:54:08.271Z,16.10
2019-05-09T14:56:41.829Z,17.50
2019-05-09T14:59:09.988Z,20.37
2019-05-09T15:01:43.256Z,23.40
2019-05-09T15:04:09.278Z,30.03
2019-05-09T15:06:37.913Z,22.07
2019-05-09T15:09:08.540Z,25.53
2019-05-09T15:11:39.491Z,35.67
2019-05-09T15:14:10.683Z,31.03
2019-05-09T15:16:39.556Z,19.97
2019-05-09T15:19:08.585Z,14.30
2019-05-09T15:21:38.161Z,23.13
2019-05-09T15:24:09.134Z,62.60
2019-05-09T15:26:37.585Z,15.13
2019-05-09T15:29:08.038Z,13.13
2019-05-09T15:31:39.183Z,21.00
2019-05-09T15:34:09.989Z,27.03
2019-05-09T15:36:38.016Z,20.60
2019-05-09T15:39:08.440Z,25.00
2019-05-09T15:41:38.461Z,22.77
2019-05-09T15:44:08.455Z,28.13
2019-05-09T15:46:42.040Z,23.83
2019-05-09T15:49:10.693Z,31.33
2019-05-09T15:51:39.333Z,32.37
2019-05-09T15:54:08.423Z,35.27
2019-05-09T15:56:38.403Z,71.13
2019-05-09T15:59:07.315Z,43.40
2019-05-09T16:01:38.347Z,27.17
2019-05-09T16:04:08.624Z,23.80
2019-05-09T16:06:39.142Z,24.00
2019-05-09T16:09:11.342Z,26.40
2019-05-09T16:11:37.844Z,21.30
2019-05-09T16:14:07.628Z,43.07
2019-05-09T16:16:38.603Z,100.23
2019-05-09T16:19:08.925Z,51.30
2019-05-09T16:21:38.288Z,66.17
2019-05-09T16:24:08.277Z,56.43
2019-05-09T16:26:38.289Z,52.55
2019-05-09T16:29:08.499Z,47.20
2019-05-09T16:31:38.833Z,27.03
2019-05-09T16:34:09.350Z,37.40
2019-05-09T16:36:38.918Z,35.47
2019-05-09T16:39:08.043Z,27.87
2019-05-09T16:41:39.271Z,38.87
2019-05-09T16:44:07.843Z,40.87
2019-05-09T16:46:37.595Z,46.53
2019-05-09T16:49:11.714Z,38.13
2019-05-09T16:51:37.909Z,32.67
2019-05-09T16:54:07.578Z,33.23
2019-05-09T16:56:38.261Z,67.67
2019-05-09T16:59:08.365Z,39.23
2019-05-09T17:01:39.640Z,30.20
2019-05-09T17:04:09.084Z,35.50
2019-05-09T17:06:38.246Z,31.63
2019-05-09T17:09:08.552Z,31.87
2019-05-09T17:11:37.183Z,33.00
2019-05-09T17:14:08.222Z,45.67
2019-05-09T17:16:37.671Z,33.67
2019-05-09T17:19:07.554Z,40.57
2019-05-09T17:21:37.951Z,40.23
2019-05-09T17:24:17.347Z,55.37
2019-05-09T17:26:48.670Z,33.17
2019-05-09T17:29:18.511Z,36.63
2019-05-09T17:31:48.897Z,31.93
2019-05-09T17:34:17.981Z,26.07
2019-05-09T17:36:46.802Z,24.03
2019-05-09T17:39:15.450Z,25.90
2019-05-09T17:41:44.076Z,25.93
2019-05-09T17:44:12.723Z,25.20
2019-05-09T17:46:41.350Z,32.40
2019-05-09T17:49:10.011Z,32.43
2019-05-09T17:51:38.657Z,26.53
2019-05-09T17:54:08.093Z,33.97
2019-05-09T17:56:37.878Z,27.87
2019-05-09T17:59:08.544Z,25.13
2019-05-09T18:01:37.475Z,25.63
2019-05-09T18:04:08.905Z,28.73
2019-05-09T18:06:37.951Z,27.33
2019-05-09T18:09:08.414Z,31.13
2019-05-09T18:11:37.816Z,42.37
2019-05-09T18:14:08.092Z,77.37
2019-05-09T18:16:39.010Z,111.23
2019-05-09T18:19:09.223Z,36.10
2019-05-09T18:21:50.375Z,47.10
2019-05-09T18:24:08.966Z,48.83
2019-05-09T18:26:38.280Z,31.43
2019-05-09T18:29:07.218Z,31.33
2019-05-09T18:31:37.563Z,34.00
2019-05-09T18:34:07.761Z,32.27
2019-05-09T18:36:38.240Z,29.90
2019-05-09T18:39:07.785Z,32.53
2019-05-09T18:41:36.673Z,29.13
2019-05-09T18:44:07.359Z,33.53
2019-05-09T18:46:35.786Z,33.53
2019-05-09T18:49:04.451Z,38.73
2019-05-09T18:51:33.098Z,42.07
2019-05-09T18:54:01.822Z,37.20
2019-05-09T18:56:30.465Z,36.67
2019-05-09T18:58:59.186Z,32.27
2019-05-09T19:01:27.809Z,33.90
2019-05-09T19:03:56.530Z,33.40
2019-05-09T19:06:25.249Z,30.50
2019-05-09T19:08:53.916Z,33.50
2019-05-09T19:11:22.552Z,32.97
2019-05-09T19:13:51.197Z,32.80
2019-05-09T19:16:24.398Z,32.90
2019-05-09T19:18:57.814Z,78.53
2019-05-09T19:21:28.076Z,43.13
2019-05-09T19:23:56.662Z,39.73
2019-05-09T19:26:37.486Z,42.30
2019-05-09T19:29:09.137Z,40.60
2019-05-09T19:31:38.195Z,39.37
2019-05-09T19:34:07.106Z,37.67
2019-05-09T19:36:35.852Z,42.47
2019-05-09T19:39:07.889Z,43.13
2019-05-09T19:41:37.535Z,41.37
2019-05-09T19:44:06.670Z,41.00
2019-05-09T19:46:35.327Z,37.43
2019-05-09T19:49:03.968Z,42.83
2019-05-09T19:51:32.617Z,42.03
2019-05-09T19:54:01.257Z,41.77
2019-05-09T19:56:29.910Z,41.00
2019-05-09T19:58:58.559Z,38.97
2019-05-09T20:01:27.319Z,36.30
2019-05-09T20:03:55.949Z,40.33
2019-05-09T20:06:24.621Z,42.40
2019-05-09T20:08:53.268Z,39.23
2019-05-09T20:11:23.607Z,41.13
2019-05-09T20:13:59.739Z,35.73
2019-05-09T20:16:42.162Z,38.17
2019-05-09T20:19:10.855Z,42.13
2019-05-09T20:21:40.067Z,39.30
2019-05-09T20:24:10.631Z,40.10
2019-05-09T20:26:39.221Z,38.90
2019-05-09T20:29:07.850Z,39.33
2019-05-09T20:31:36.486Z,42.23
2019-05-09T20:34:05.240Z,42.87
2019-05-09T20:36:33.883Z,36.23
2019-05-09T20:39:02.793Z,44.63
2019-05-09T20:41:31.635Z,38.30
2019-05-09T20:44:00.529Z,37.97
2019-05-09T20:46:29.411Z,42.70
2019-05-09T20:48:59.066Z,44.23
2019-05-09T20:51:27.993Z,39.00
2019-05-09T20:53:56.899Z,39.33
2019-05-09T20:56:25.730Z,44.27
2019-05-09T20:58:54.553Z,40.53
2019-05-09T21:01:23.443Z,37.50
2019-05-09T21:04:00.177Z,42.20
2019-05-09T21:06:22.841Z,45.87
2019-05-09T21:08:51.665Z,46.80
2019-05-09T21:11:20.418Z,37.43
2019-05-09T21:13:49.281Z,43.43
2019-05-09T21:16:18.246Z,47.80
2019-05-09T21:18:47.049Z,42.10
2019-05-09T21:21:16.010Z,42.87
2019-05-09T21:23:44.921Z,44.70
2019-05-09T21:26:13.745Z,83.10
2019-05-09T21:28:42.586Z,47.67
2019-05-09T21:31:11.443Z,45.97
2019-05-09T21:33:40.189Z,47.03
2019-05-09T21:36:08.750Z,44.43
2019-05-09T21:38:37.400Z,42.87
2019-05-09T21:41:06.027Z,43.53
2019-05-09T21:43:34.673Z,42.20
2019-05-09T21:46:03.349Z,40.70
2019-05-09T21:48:31.994Z,42.17
2019-05-09T21:51:00.623Z,41.87
2019-05-09T21:53:40.528Z,41.60
2019-05-09T21:55:59.599Z,41.50
2019-05-09T21:58:28.249Z,43.27
2019-05-09T22:00:58.563Z,43.73
2019-05-09T22:03:27.402Z,44.57
2019-05-09T22:05:56.043Z,42.33
2019-05-09T22:08:24.796Z,39.13
2019-05-09T22:10:53.445Z,44.40
2019-05-09T22:13:22.087Z,43.13
2019-05-09T22:15:50.789Z,41.20
2019-05-09T22:18:19.433Z,37.57
2019-05-09T22:20:48.070Z,36.63
2019-05-09T22:23:16.707Z,35.97
2019-05-09T22:25:45.412Z,41.77
2019-05-09T22:28:14.052Z,47.17
2019-05-09T22:30:42.701Z,40.13
2019-05-09T22:33:11.363Z,43.10
2019-05-09T22:35:39.992Z,38.23
2019-05-09T22:38:08.634Z,39.90
2019-05-09T22:40:37.265Z,41.50
2019-05-09T22:43:05.929Z,46.37
2019-05-09T22:45:34.683Z,44.47
2019-05-09T22:48:03.465Z,47.00
2019-05-09T22:50:32.127Z,45.07
2019-05-09T22:53:00.764Z,42.77
2019-05-09T22:55:29.514Z,45.77
2019-05-09T22:57:59.019Z,42.10
2019-05-09T23:00:27.647Z,47.27
2019-05-09T23:02:56.289Z,42.47
2019-05-09T23:05:24.918Z,45.03
2019-05-09T23:07:53.558Z,39.60
2019-05-09T23:10:22.206Z,36.80
2019-05-09T23:12:50.828Z,41.23
2019-05-09T23:15:19.738Z,40.77
2019-05-09T23:17:48.313Z,36.93
2019-05-09T23:20:18.686Z,39.63
2019-05-09T23:22:47.517Z,34.00
2019-05-09T23:25:16.222Z,37.80
2019-05-09T23:27:44.837Z,32.67
2019-05-09T23:30:14.465Z,32.77
2019-05-09T23:32:44.730Z,36.40
2019-05-09T23:35:13.378Z,33.27
2019-05-09T23:37:42.011Z,37.77
2019-05-09T23:40:10.917Z,37.20
2019-05-09T23:42:39.606Z,35.73
2019-05-09T23:45:08.550Z,36.93
2019-05-09T23:47:37.194Z,37.70
2019-05-09T23:50:06.711Z,35.47
2019-05-09T23:52:35.424Z,36.77
2019-05-09T23:55:22.350Z,37.93
2019-05-09T23:58:08.855Z,35.53
